createdAt,value
2022-09-28T00:01:58.850Z,2.77
2022-09-28T00:04:25.559Z,3.47
2022-09-28T00:06:52.116Z,3.47
2022-09-28T00:09:18.660Z,1.40
2022-09-28T00:11:46.166Z,1.33
2022-09-28T00:14:12.978Z,3.77
2022-09-28T00:16:42.190Z,4.00
2022-09-28T00:19:09.568Z,3.43
2022-09-28T00:21:38.225Z,2.67
2022-09-28T00:24:15.876Z,2.23
2022-09-28T00:26:47.031Z,2.70
2022-09-28T00:29:23.214Z,1.50
2022-09-28T00:31:52.735Z,1.53
2022-09-28T00:34:19.634Z,3.07
2022-09-28T00:36:47.304Z,2.90
2022-09-28T00:39:15.721Z,3.37
2022-09-28T00:41:42.772Z,2.67
2022-09-28T00:44:24.515Z,3.60
2022-09-28T00:46:53.236Z,1.50
2022-09-28T00:49:25.831Z,1.00
2022-09-28T00:51:52.393Z,1.30
2022-09-28T00:54:19.057Z,2.00
2022-09-28T00:56:47.993Z,2.30
2022-09-28T00:59:15.069Z,1.13
2022-09-28T01:01:42.880Z,1.80
2022-09-28T01:04:09.509Z,1.30
2022-09-28T01:06:38.376Z,1.10
2022-09-28T01:09:08.709Z,1.20
2022-09-28T01:11:39.861Z,1.40
2022-09-28T01:14:11.903Z,0.93
2022-09-28T01:17:09.001Z,1.10
2022-09-28T01:19:56.909Z,1.13
2022-09-28T01:22:26.342Z,1.03
2022-09-28T01:25:13.445Z,1.73
2022-09-28T01:27:44.838Z,1.20
2022-09-28T01:30:15.812Z,1.10
2022-09-28T01:33:08.689Z,1.10
2022-09-28T01:35:43.277Z,2.27
2022-09-28T01:38:15.348Z,1.10
2022-09-28T01:40:43.765Z,1.40
2022-09-28T01:43:19.628Z,2.53
2022-09-28T01:45:54.348Z,3.93
2022-09-28T01:48:30.007Z,3.07
2022-09-28T01:51:00.758Z,1.00
2022-09-28T01:53:36.946Z,1.50
2022-09-28T01:56:09.602Z,1.03
2022-09-28T01:59:08.415Z,1.00
2022-09-28T02:01:47.790Z,0.90
2022-09-28T02:04:29.431Z,4.83
2022-09-28T02:07:05.004Z,1.30
2022-09-28T02:09:37.421Z,1.70
2022-09-28T02:12:14.093Z,4.13
2022-09-28T02:14:43.857Z,2.23
2022-09-28T02:17:10.455Z,2.50
2022-09-28T02:19:37.949Z,1.77
2022-09-28T02:22:31.763Z,1.20
2022-09-28T02:25:35.321Z,1.37
2022-09-28T02:28:04.717Z,2.50
2022-09-28T02:30:32.481Z,1.20
2022-09-28T02:33:24.634Z,1.50
2022-09-28T02:35:51.618Z,1.63
2022-09-28T02:38:18.273Z,1.30
2022-09-28T02:40:54.128Z,2.40
2022-09-28T02:43:26.951Z,4.03
2022-09-28T02:46:15.098Z,4.07
2022-09-28T02:49:04.922Z,6.90
2022-09-28T02:52:05.268Z,4.67
2022-09-28T02:54:49.864Z,7.07
2022-09-28T02:57:27.797Z,4.90
2022-09-28T03:00:18.793Z,3.57
2022-09-28T03:03:10.333Z,4.00
2022-09-28T03:05:46.074Z,1.70
2022-09-28T03:08:25.690Z,1.47
2022-09-28T03:11:14.064Z,1.13
2022-09-28T03:13:41.035Z,1.20
2022-09-28T03:16:13.015Z,2.47
2022-09-28T03:18:39.924Z,1.50
2022-09-28T03:21:07.046Z,1.63
2022-09-28T03:23:33.957Z,1.30
2022-09-28T03:26:00.445Z,1.40
2022-09-28T03:28:27.119Z,1.47
2022-09-28T03:30:54.130Z,1.20
2022-09-28T03:33:20.750Z,1.10
2022-09-28T03:35:50.873Z,1.10
2022-09-28T03:38:18.598Z,3.03
2022-09-28T03:40:54.185Z,1.53
2022-09-28T03:43:20.992Z,1.40
2022-09-28T03:45:59.013Z,1.40
2022-09-28T03:48:32.705Z,1.83
2022-09-28T03:51:07.062Z,2.57
2022-09-28T03:53:33.783Z,1.90
2022-09-28T03:56:20.526Z,1.20
2022-09-28T03:58:47.026Z,1.00
2022-09-28T04:01:17.603Z,2.53
2022-09-28T04:03:44.948Z,1.20
2022-09-28T04:06:11.875Z,3.43
2022-09-28T04:08:38.542Z,2.07
2022-09-28T04:11:05.570Z,1.20
2022-09-28T04:13:32.121Z,1.03
2022-09-28T04:16:07.528Z,2.10
2022-09-28T04:18:35.222Z,1.30
2022-09-28T04:21:07.187Z,1.10
2022-09-28T04:23:35.516Z,1.13
2022-09-28T04:26:03.663Z,1.07
2022-09-28T04:28:48.734Z,1.70
2022-09-28T04:31:18.599Z,1.30
2022-09-28T04:33:45.344Z,1.40
2022-09-28T04:36:11.867Z,1.57
2022-09-28T04:38:52.234Z,1.10
2022-09-28T04:41:20.171Z,1.20
2022-09-28T04:43:47.661Z,1.40
2022-09-28T04:46:14.838Z,1.00
2022-09-28T04:48:41.627Z,1.80
2022-09-28T04:51:08.216Z,1.63
2022-09-28T04:53:35.224Z,1.30
2022-09-28T04:56:16.225Z,1.20
2022-09-28T04:58:43.034Z,1.10
2022-09-28T05:01:13.673Z,1.10
2022-09-28T05:03:40.231Z,2.47
2022-09-28T05:06:07.091Z,1.20
2022-09-28T05:08:35.334Z,1.67
2022-09-28T05:11:06.915Z,1.93
2022-09-28T05:13:43.946Z,1.60
2022-09-28T05:16:11.713Z,1.03
2022-09-28T05:18:38.426Z,1.40
2022-09-28T05:21:11.215Z,1.60
2022-09-28T05:23:37.857Z,1.20
2022-09-28T05:26:04.410Z,1.10
2022-09-28T05:28:33.032Z,2.70
2022-09-28T05:31:01.599Z,4.13
2022-09-28T05:33:29.801Z,2.93
2022-09-28T05:36:00.878Z,2.20
2022-09-28T05:38:28.711Z,1.30
2022-09-28T05:40:55.529Z,1.00
2022-09-28T05:43:22.379Z,1.00
2022-09-28T05:45:53.014Z,3.30
2022-09-28T05:48:22.262Z,1.70
2022-09-28T05:50:52.628Z,1.27
2022-09-28T05:53:20.286Z,3.57
2022-09-28T05:55:47.183Z,2.17
2022-09-28T05:58:13.952Z,2.67
2022-09-28T06:00:40.430Z,2.57
2022-09-28T06:03:10.905Z,1.97
2022-09-28T06:05:39.366Z,1.80
2022-09-28T06:08:08.431Z,1.67
2022-09-28T06:10:35.204Z,1.33
2022-09-28T06:13:02.026Z,2.43
2022-09-28T06:15:31.486Z,1.40
2022-09-28T06:18:04.548Z,1.60
2022-09-28T06:20:35.567Z,2.93
2022-09-28T06:23:02.314Z,4.43
2022-09-28T06:25:29.256Z,1.20
2022-09-28T06:28:02.349Z,1.47
2022-09-28T06:30:32.709Z,3.10
2022-09-28T06:33:01.246Z,3.13
2022-09-28T06:35:33.112Z,4.30
2022-09-28T06:38:00.351Z,3.83
2022-09-28T06:40:27.635Z,4.37
2022-09-28T06:42:58.085Z,3.30
2022-09-28T06:45:26.432Z,1.40
2022-09-28T06:47:54.870Z,3.20
2022-09-28T06:50:21.533Z,3.07
2022-09-28T06:52:51.884Z,3.77
2022-09-28T06:55:19.105Z,2.83
2022-09-28T06:57:46.025Z,3.00
2022-09-28T07:00:13.434Z,3.60
2022-09-28T07:02:39.994Z,5.17
2022-09-28T07:05:08.263Z,3.70
2022-09-28T07:07:34.813Z,4.20
2022-09-28T07:10:01.292Z,5.00
2022-09-28T07:12:27.816Z,4.30
2022-09-28T07:14:57.333Z,5.97
2022-09-28T07:17:24.323Z,5.17
2022-09-28T07:19:53.705Z,5.63
2022-09-28T07:22:29.861Z,6.10
2022-09-28T07:25:01.476Z,7.00
2022-09-28T07:27:29.125Z,7.27
2022-09-28T07:29:55.683Z,7.93
2022-09-28T07:32:22.797Z,9.17
2022-09-28T07:34:50.207Z,10.83
2022-09-28T07:37:18.909Z,12.80
2022-09-28T07:40:09.551Z,13.80
2022-09-28T07:42:36.337Z,16.63
2022-09-28T07:45:04.086Z,15.30
2022-09-28T07:47:34.818Z,12.00
2022-09-28T07:50:03.073Z,11.77
2022-09-28T07:52:29.841Z,10.97
2022-09-28T07:54:56.385Z,11.03
2022-09-28T07:57:23.725Z,11.57
2022-09-28T07:59:53.623Z,10.80
2022-09-28T08:02:21.137Z,12.50
2022-09-28T08:04:48.911Z,11.40
2022-09-28T08:07:20.477Z,9.87
2022-09-28T08:09:50.148Z,11.30
2022-09-28T08:12:18.434Z,10.60
2022-09-28T08:14:45.753Z,9.93
2022-09-28T08:17:12.379Z,9.30
2022-09-28T08:19:57.598Z,8.63
2022-09-28T08:22:24.130Z,6.73
2022-09-28T08:24:52.267Z,6.83
2022-09-28T08:27:18.926Z,5.53
2022-09-28T08:29:46.951Z,4.53
2022-09-28T08:32:13.667Z,4.37
2022-09-28T08:34:41.790Z,3.80
2022-09-28T08:37:09.311Z,3.70
2022-09-28T08:39:36.553Z,3.10
2022-09-28T08:42:09.234Z,2.87
2022-09-28T08:47:36.142Z,2.20
2022-09-28T08:50:09.110Z,1.60
2022-09-28T08:52:40.192Z,1.27
2022-09-28T08:55:26.122Z,1.03
2022-09-28T08:58:07.414Z,1.00
2022-09-28T09:00:41.295Z,1.20
2022-09-28T09:03:13.472Z,1.00
2022-09-28T09:06:09.438Z,0.70
2022-09-28T09:08:56.168Z,0.80
2022-09-28T09:11:48.890Z,0.70
2022-09-28T09:14:35.213Z,0.77
2022-09-28T09:17:15.934Z,0.60
2022-09-28T09:19:45.733Z,0.70
2022-09-28T09:22:50.257Z,0.73
2022-09-28T09:25:29.536Z,0.75
2022-09-28T09:28:34.180Z,0.57
2022-09-28T09:31:18.569Z,0.88
2022-09-28T09:34:01.429Z,0.60
2022-09-28T09:36:53.577Z,0.57
2022-09-28T09:39:55.810Z,0.68
2022-09-28T09:42:50.019Z,0.70
2022-09-28T09:45:43.980Z,0.50
2022-09-28T09:48:27.143Z,0.60
2022-09-28T09:51:23.759Z,0.40
2022-09-28T09:53:55.622Z,0.50
2022-09-28T09:56:31.187Z,0.40
2022-09-28T09:59:08.439Z,0.40
2022-09-28T10:01:40.486Z,0.40
2022-09-28T10:04:21.189Z,0.40
2022-09-28T10:06:48.887Z,0.28
2022-09-28T10:09:28.176Z,0.38
2022-09-28T10:11:54.863Z,0.50
2022-09-28T10:14:24.166Z,0.47
2022-09-28T10:16:53.288Z,0.40
2022-09-28T10:19:25.825Z,0.35
2022-09-28T10:21:53.543Z,0.57
2022-09-28T10:24:30.340Z,0.35
2022-09-28T10:27:03.569Z,0.68
2022-09-28T10:29:38.953Z,0.40
2022-09-28T10:32:18.667Z,0.40
2022-09-28T10:34:50.128Z,0.40
2022-09-28T10:37:18.370Z,0.38
2022-09-28T10:39:55.742Z,0.35
2022-09-28T10:42:33.899Z,1.35
2022-09-28T10:45:20.092Z,0.70
2022-09-28T10:47:47.133Z,1.70
2022-09-28T10:50:35.031Z,0.40
2022-09-28T10:53:21.125Z,0.40
2022-09-28T10:56:01.207Z,0.40
2022-09-28T10:58:40.585Z,0.60
2022-09-28T11:01:11.580Z,0.30
2022-09-28T11:03:58.500Z,0.32
2022-09-28T11:06:31.430Z,0.40
2022-09-28T11:09:01.219Z,0.60
2022-09-28T11:11:29.664Z,0.47
2022-09-28T11:14:03.701Z,0.30
2022-09-28T11:16:33.777Z,0.30
2022-09-28T11:19:25.043Z,0.30
2022-09-28T11:21:51.575Z,0.50
2022-09-28T11:24:24.463Z,0.30
2022-09-28T11:26:56.411Z,0.30
2022-09-28T11:29:36.997Z,0.30
2022-09-28T11:32:06.748Z,0.70
2022-09-28T11:34:59.635Z,0.45
2022-09-28T11:37:42.348Z,0.40
2022-09-28T11:40:30.800Z,0.40
2022-09-28T11:43:07.346Z,0.30
2022-09-28T11:45:33.938Z,0.50
2022-09-28T11:48:06.060Z,0.50
2022-09-28T11:50:46.998Z,0.30
2022-09-28T11:53:20.685Z,0.40
2022-09-28T11:55:50.124Z,0.40
2022-09-28T11:58:32.107Z,0.30
2022-09-28T12:01:36.096Z,0.38
2022-09-28T12:04:09.464Z,0.30
2022-09-28T12:06:46.119Z,0.20
2022-09-28T12:09:28.811Z,0.40
2022-09-28T12:12:01.683Z,0.30
2022-09-28T12:14:35.638Z,0.30
2022-09-28T12:17:25.826Z,0.30
2022-09-28T12:20:03.957Z,0.45
2022-09-28T12:22:37.015Z,0.40
2022-09-28T12:25:10.337Z,0.40
2022-09-28T12:27:59.165Z,0.30
2022-09-28T12:30:30.706Z,0.50
2022-09-28T12:33:03.775Z,0.40
2022-09-28T12:35:59.190Z,0.30
2022-09-28T12:39:14.859Z,0.40
2022-09-28T12:41:44.930Z,0.40
2022-09-28T12:44:37.811Z,0.30
2022-09-28T12:47:37.240Z,0.63
2022-09-28T12:53:39.913Z,0.60
2022-09-28T12:56:31.776Z,0.40
2022-09-28T12:59:19.812Z,0.40
2022-09-28T13:02:37.099Z,0.40
2022-09-28T13:05:40.455Z,0.40
2022-09-28T13:08:31.558Z,0.30
2022-09-28T13:11:22.761Z,0.40
2022-09-28T13:14:14.839Z,1.02
2022-09-28T13:16:50.407Z,0.40
2022-09-28T13:19:27.449Z,0.60
2022-09-28T13:22:09.649Z,0.32
2022-09-28T13:24:44.499Z,0.40
2022-09-28T13:27:17.404Z,0.47
2022-09-28T13:29:44.448Z,0.40
2022-09-28T13:32:12.871Z,0.40
2022-09-28T13:34:39.686Z,0.50
2022-09-28T13:37:27.013Z,0.50
2022-09-28T13:39:56.559Z,0.68
2022-09-28T13:42:44.301Z,0.57
2022-09-28T13:45:27.837Z,0.77
2022-09-28T13:48:14.749Z,0.40
2022-09-28T13:51:05.822Z,0.52
2022-09-28T13:53:39.613Z,0.45
2022-09-28T13:56:21.941Z,0.60
2022-09-28T13:58:57.966Z,0.70
2022-09-28T14:01:52.080Z,0.80
2022-09-28T14:04:21.902Z,0.50
2022-09-28T14:07:09.363Z,0.88
2022-09-28T14:09:46.844Z,0.80
2022-09-28T14:12:35.320Z,0.60
2022-09-28T14:15:02.776Z,0.70
2022-09-28T14:17:51.597Z,0.82
2022-09-28T14:20:19.921Z,0.80
2022-09-28T14:22:58.015Z,0.70
2022-09-28T14:25:42.262Z,0.60
2022-09-28T14:28:26.476Z,0.65
2022-09-28T14:30:59.665Z,0.65
2022-09-28T14:33:31.943Z,1.10
2022-09-28T14:36:42.627Z,1.10
2022-09-28T14:39:40.216Z,0.88
2022-09-28T14:42:17.594Z,0.98
2022-09-28T14:45:06.141Z,1.17
2022-09-28T14:47:44.857Z,1.20
2022-09-28T14:50:21.927Z,0.90
2022-09-28T14:52:54.556Z,0.70
2022-09-28T14:55:33.031Z,0.88
2022-09-28T14:57:59.621Z,0.95
2022-09-28T15:00:30.474Z,0.70
2022-09-28T15:03:02.497Z,1.00
2022-09-28T15:05:49.416Z,1.20
2022-09-28T15:08:20.995Z,0.70
2022-09-28T15:10:50.245Z,0.93
2022-09-28T15:13:21.385Z,0.85
2022-09-28T15:15:51.827Z,0.90
2022-09-28T15:18:38.756Z,0.85
2022-09-28T15:21:05.362Z,0.80
2022-09-28T15:23:36.823Z,0.80
2022-09-28T15:26:07.182Z,0.75
2022-09-28T15:28:35.455Z,1.10
2022-09-28T15:31:05.002Z,0.70
2022-09-28T15:33:53.900Z,0.70
2022-09-28T15:36:41.520Z,0.80
2022-09-28T15:39:21.035Z,0.80
2022-09-28T15:42:04.934Z,0.82
2022-09-28T15:44:35.257Z,0.73
2022-09-28T15:47:15.416Z,0.80
2022-09-28T15:49:58.727Z,1.00
2022-09-28T15:52:47.239Z,0.85
2022-09-28T15:55:38.004Z,0.80
2022-09-28T15:58:22.721Z,0.90
2022-09-28T16:00:51.727Z,0.60
2022-09-28T16:03:29.549Z,0.80
2022-09-28T16:06:03.195Z,0.80
2022-09-28T16:09:05.137Z,0.73
2022-09-28T16:12:31.718Z,0.75
2022-09-28T16:15:34.503Z,0.70
2022-09-28T16:19:06.007Z,0.90
2022-09-28T16:21:45.923Z,0.63
2022-09-28T16:24:26.090Z,0.93
2022-09-28T16:27:25.206Z,0.63
2022-09-28T16:30:15.111Z,0.60
2022-09-28T16:33:06.309Z,0.60
2022-09-28T16:35:50.616Z,1.50
2022-09-28T16:38:18.812Z,0.77
2022-09-28T16:40:49.625Z,0.80
2022-09-28T16:43:27.083Z,1.08
2022-09-28T16:45:57.978Z,1.63
2022-09-28T16:48:30.546Z,1.10
2022-09-28T16:50:58.451Z,0.80
2022-09-28T16:53:44.656Z,1.00
2022-09-28T16:56:12.243Z,1.00
2022-09-28T16:58:39.056Z,1.17
2022-09-28T17:01:09.615Z,0.80
2022-09-28T17:03:36.291Z,0.70
2022-09-28T17:06:07.935Z,0.88
2022-09-28T17:08:35.699Z,0.90
2022-09-28T17:11:23.367Z,0.90
2022-09-28T17:13:49.021Z,0.90
2022-09-28T17:16:43.033Z,0.90
2022-09-28T17:19:27.003Z,1.00
2022-09-28T17:21:53.919Z,1.08
2022-09-28T17:24:21.960Z,0.93
2022-09-28T17:26:50.997Z,1.10
2022-09-28T17:29:18.667Z,0.90
2022-09-28T17:31:46.601Z,1.67
2022-09-28T17:34:16.356Z,1.20
2022-09-28T17:36:45.160Z,0.88
2022-09-28T17:39:17.548Z,1.00
2022-09-28T17:41:44.327Z,1.30
2022-09-28T17:44:18.101Z,1.05
2022-09-28T17:46:47.610Z,0.90
2022-09-28T17:49:14.917Z,1.05
2022-09-28T17:51:41.530Z,0.90
2022-09-28T17:54:08.933Z,1.00
2022-09-28T17:56:36.698Z,1.02
2022-09-28T17:59:08.108Z,1.00
2022-09-28T18:01:38.242Z,0.95
2022-09-28T18:04:06.967Z,1.00
2022-09-28T18:06:34.441Z,1.10
2022-09-28T18:09:04.283Z,1.17
2022-09-28T18:11:43.312Z,0.90
2022-09-28T18:14:11.442Z,1.00
2022-09-28T18:16:45.369Z,1.13
2022-09-28T18:19:12.271Z,1.07
2022-09-28T18:21:42.164Z,1.00
2022-09-28T18:24:09.425Z,1.20
2022-09-28T18:26:37.201Z,0.93
2022-09-28T18:29:03.963Z,1.30
2022-09-28T18:31:36.558Z,0.90
2022-09-28T18:34:05.766Z,0.90
2022-09-28T18:36:35.867Z,1.43
2022-09-28T18:39:18.867Z,1.60
2022-09-28T18:41:46.933Z,1.20
2022-09-28T18:44:16.727Z,1.13
2022-09-28T18:46:43.551Z,1.20
2022-09-28T18:49:10.444Z,1.10
2022-09-28T18:51:40.010Z,1.17
2022-09-28T18:54:07.680Z,1.20
2022-09-28T18:56:37.436Z,1.90
2022-09-28T18:59:12.278Z,1.40
2022-09-28T19:01:41.900Z,2.80
2022-09-28T19:04:10.033Z,2.10
2022-09-28T19:06:41.920Z,1.90
2022-09-28T19:09:15.789Z,4.43
2022-09-28T19:11:42.598Z,2.43
2022-09-28T19:14:12.113Z,3.30
2022-09-28T19:16:46.657Z,3.90
2022-09-28T19:19:27.123Z,2.47
2022-09-28T19:22:08.369Z,7.23
2022-09-28T19:24:35.016Z,2.80
2022-09-28T19:27:03.970Z,4.50
2022-09-28T19:29:33.392Z,7.63
2022-09-28T19:32:05.617Z,4.17
2022-09-28T19:34:34.337Z,4.50
2022-09-28T19:37:04.102Z,3.67
2022-09-28T19:39:33.484Z,3.30
2022-09-28T19:42:01.344Z,3.50
2022-09-28T19:44:29.705Z,3.90
2022-09-28T19:47:06.592Z,3.83
2022-09-28T19:49:37.000Z,4.33
2022-09-28T19:52:13.406Z,4.47
2022-09-28T19:54:44.622Z,4.13
2022-09-28T19:57:12.741Z,3.90
2022-09-28T19:59:46.656Z,4.13
2022-09-28T20:02:16.301Z,4.07
2022-09-28T20:04:42.965Z,4.10
2022-09-28T20:07:09.580Z,6.63
2022-09-28T20:09:36.338Z,4.13
2022-09-28T20:12:03.204Z,4.50
2022-09-28T20:14:33.041Z,5.20
2022-09-28T20:17:00.855Z,4.07
2022-09-28T20:19:27.607Z,4.97
2022-09-28T20:21:55.080Z,5.00
2022-09-28T20:24:21.832Z,7.27
2022-09-28T20:26:49.614Z,5.67
2022-09-28T20:29:16.176Z,6.70
2022-09-28T20:31:43.236Z,4.60
2022-09-28T20:34:14.415Z,4.67
2022-09-28T20:36:47.119Z,4.50
2022-09-28T20:39:13.845Z,4.83
2022-09-28T20:41:41.252Z,4.33
2022-09-28T20:44:07.953Z,5.43
2022-09-28T20:46:36.521Z,6.77
2022-09-28T20:49:04.197Z,5.47
2022-09-28T20:51:30.877Z,5.00
2022-09-28T20:53:58.917Z,5.70
2022-09-28T20:56:28.440Z,5.87
2022-09-28T20:58:55.851Z,5.23
2022-09-28T21:01:31.814Z,5.60
2022-09-28T21:04:01.018Z,6.17
2022-09-28T21:06:32.876Z,5.73
2022-09-28T21:08:59.839Z,6.10
2022-09-28T21:11:28.249Z,5.33
2022-09-28T21:13:57.160Z,5.40
2022-09-28T21:16:24.293Z,4.80
2022-09-28T21:18:50.823Z,4.90
2022-09-28T21:21:19.493Z,5.23
2022-09-28T21:23:46.712Z,5.03
2022-09-28T21:26:24.759Z,6.37
2022-09-28T21:28:53.510Z,5.50
2022-09-28T21:31:23.606Z,5.30
2022-09-28T21:33:52.741Z,4.67
2022-09-28T21:36:19.286Z,6.20
2022-09-28T21:38:45.806Z,5.10
2022-09-28T21:41:12.434Z,5.23
2022-09-28T21:43:39.064Z,4.90
2022-09-28T21:46:05.941Z,6.30
2022-09-28T21:48:32.776Z,5.20
2022-09-28T21:51:01.860Z,4.70
2022-09-28T21:53:31.255Z,5.10
2022-09-28T21:55:59.038Z,5.10
2022-09-28T21:58:28.244Z,5.30
2022-09-28T22:01:04.670Z,4.53
2022-09-28T22:03:32.470Z,5.53
2022-09-28T22:05:59.144Z,5.20
2022-09-28T22:08:26.218Z,4.60
2022-09-28T22:11:05.755Z,4.43
2022-09-28T22:13:39.244Z,4.70
2022-09-28T22:16:06.373Z,4.20
2022-09-28T22:18:34.117Z,4.70
2022-09-28T22:21:03.367Z,4.60
2022-09-28T22:23:30.365Z,4.50
2022-09-28T22:26:02.135Z,4.73
2022-09-28T22:28:29.129Z,4.63
2022-09-28T22:30:56.870Z,4.10
2022-09-28T22:33:24.037Z,4.40
2022-09-28T22:35:51.364Z,4.10
2022-09-28T22:38:19.280Z,4.93
2022-09-28T22:40:49.699Z,4.80
2022-09-28T22:43:16.982Z,4.80
2022-09-28T22:45:43.607Z,4.37
2022-09-28T22:48:10.348Z,4.10
2022-09-28T22:50:37.745Z,5.40
2022-09-28T22:53:04.880Z,4.00
2022-09-28T22:55:34.939Z,4.27
2022-09-28T22:58:01.765Z,4.20
2022-09-28T23:00:30.203Z,4.20
2022-09-28T23:02:56.767Z,4.50
2022-09-28T23:05:23.361Z,3.80
2022-09-28T23:07:50.016Z,4.50
2022-09-28T23:10:16.762Z,4.37
2022-09-28T23:12:43.654Z,4.33
2022-09-28T23:15:10.547Z,3.97
2022-09-28T23:17:37.105Z,4.40
2022-09-28T23:20:03.949Z,4.30
2022-09-28T23:22:30.484Z,4.00
2022-09-28T23:24:57.093Z,4.13
2022-09-28T23:27:23.678Z,4.53
2022-09-28T23:29:52.712Z,4.20
2022-09-28T23:32:19.248Z,4.33
2022-09-28T23:34:45.791Z,4.03
2022-09-28T23:37:12.307Z,4.50
2022-09-28T23:39:38.840Z,4.43
2022-09-28T23:42:05.949Z,3.70
2022-09-28T23:44:33.223Z,3.77
2022-09-28T23:46:59.947Z,4.20
2022-09-28T23:49:26.526Z,3.83
2022-09-28T23:51:53.065Z,3.90
2022-09-28T23:54:19.542Z,3.80
2022-09-28T23:56:46.045Z,4.10
2022-09-28T23:59:12.556Z,4.23
